Time;durP1;ratioP1;P1;durP2;ratioP2;P2;SDS_P1;SDS_P2;PMS_P1;PMS_P2;Temp;Humidity;BMP_temperature;BMP_pressure;BME280_temperature;BME280_humidity;BME280_pressure;Samples;Min_cycle;Max_cycle;Signal;HPM_P1;HPM_P2
2021/03/12 00:00:21;;;;;;;;;;;;;;;;;;5048115;28;1203;-63
2021/03/12 00:02:46;;;;;;;;;;;;;;;;;;5048412;28;890;-63
2021/03/12 00:05:12;;;;;;;;;;;;;;;;;;5048898;28;1882;-63
2021/03/12 00:07:38;;;;;;;;;;;;;;;;;;5048062;28;905;-63
2021/03/12 00:10:07;;;;;;;;;;;;;;;;;;5047676;28;847;-63
2021/03/12 00:12:32;;;;;;;;;;;;;;;;;;5047688;28;823;-63
2021/03/12 00:14:58;;;;;;;;;;;;;;;;;;5047351;28;815;-63
2021/03/12 00:17:24;;;;;;;;;;;;;;;;;;5047710;28;971;-63
2021/03/12 00:19:49;;;;;;;;;;;;;;;;;;5047690;28;835;-63
2021/03/12 00:22:15;;;;;;;;;;;;;;;;;;5048401;28;926;-63
2021/03/12 00:24:40;;;;;;;;;;;;;;;;;;5048542;28;1918;-63
2021/03/12 00:27:05;;;;;;;;;;;;;;;;;;5047715;28;827;-63
2021/03/12 00:29:31;;;;;;;;;;;;;;;;;;5047080;28;914;-63
2021/03/12 00:31:56;;;;;;;;;;;;;;;;;;5032610;28;1002;-63
2021/03/12 00:34:22;;;;;;;;;;;;;;;;;;5029556;28;835;-63
2021/03/12 00:36:47;;;;;;;;;;;;;;;;;;5047628;28;1096;-63
2021/03/12 00:39:12;;;;;;;;;;;;;;;;;;5048228;28;898;-62
2021/03/12 00:41:38;;;;;;;;;;;;;;;;;;5047115;28;933;-63
2021/03/12 00:44:03;;;;;;;;;;;;;;;;;;5046523;28;1996;-63
2021/03/12 00:46:28;;;;;;;;;;;;;;;;;;5047087;28;894;-63
2021/03/12 00:48:54;;;;;;;;;;;;;;;;;;5047297;28;871;-63
2021/03/12 00:51:19;;;;;;;;;;;;;;;;;;5047400;28;827;-63
2021/03/12 00:53:44;;;;;;;;;;;;;;;;;;5055736;28;1126;-63
2021/03/12 00:56:10;;;;;;;;;;;;;;;;;;5065778;28;1112;-63
2021/03/12 00:58:36;;;;;;;;;;;;;;;;;;5067248;28;831;-63
2021/03/12 01:01:01;;;;;;;;;;;;;;;;;;5067222;28;847;-63
2021/03/12 01:03:27;;;;;;;;;;;;;;;;;;5066470;28;839;-63
2021/03/12 01:05:52;;;;;;;;;;;;;;;;;;5065714;28;1948;-64
2021/03/12 01:08:17;;;;;;;;;;;;;;;;;;5067030;28;859;-63
2021/03/12 01:10:43;;;;;;;;;;;;;;;;;;5067606;28;882;-63
2021/03/12 01:13:08;;;;;;;;;;;;;;;;;;5066346;28;878;-63
2021/03/12 01:15:34;;;;;;;;;;;;;;;;;;5066734;28;843;-63
2021/03/12 01:17:59;;;;;;;;;;;;;;;;;;5029433;28;1231;-62
2021/03/12 01:20:34;;;;;;;;;;;;;;;;;;5026450;28;1101;-63
2021/03/12 01:23:00;;;;;;;;;;;;;;;;;;5026181;28;886;-62
2021/03/12 01:25:31;;;;;;;;;;;;;;;;;;5025879;28;2025;-63
2021/03/12 01:27:57;;;;;;;;;;;;;;;;;;5026517;28;820;-63
2021/03/12 01:30:24;;;;;;;;;;;;;;;;;;5026610;28;851;-63
2021/03/12 01:32:50;;;;;;;;;;;;;;;;;;5026724;28;823;-63
2021/03/12 01:35:16;;;;;;;;;;;;;;;;;;5026968;28;875;-63
2021/03/12 01:37:41;;;;;;;;;;;;;;;;;;5026644;28;961;-62
2021/03/12 01:40:08;;;;;;;;;;;;;;;;;;5035051;28;1082;-62
2021/03/12 01:42:33;;;;;;;;;;;;;;;;;;5046440;28;922;-62
2021/03/12 01:44:58;;;;;;;;;;;;;;;;;;5037820;28;1985;-62
2021/03/12 01:47:24;;;;;;;;;;;;;;;;;;5026727;28;955;-63
2021/03/12 01:49:49;;;;;;;;;;;;;;;;;;5026708;28;898;-64
2021/03/12 01:52:15;;;;;;;;;;;;;;;;;;5026599;28;815;-64
2021/03/12 01:54:41;;;;;;;;;;;;;;;;;;5061521;28;1067;-64
2021/03/12 01:57:06;;;;;;;;;;;;;;;;;;5065762;28;931;-64
2021/03/12 01:59:32;;;;;;;;;;;;;;;;;;5065884;28;846;-64
2021/03/12 02:01:58;;;;;;;;;;;;;;;;;;5064996;28;910;-63
2021/03/12 02:04:23;;;;;;;;;;;;;;;;;;5066202;28;1975;-64
2021/03/12 02:06:49;;;;;;;;;;;;;;;;;;5066134;28;922;-64
2021/03/12 02:09:15;;;;;;;;;;;;;;;;;;5064956;28;1451;-63
2021/03/12 02:11:42;;;;;;;;;;;;;;;;;;5045783;28;1280;-64
2021/03/12 02:14:14;;;;;;;;;;;;;;;;;;5045267;28;879;-64
2021/03/12 02:16:45;;;;;;;;;;;;;;;;;;5045850;28;882;-63
2021/03/12 02:19:29;;;;;;;;;;;;;;;;;;5050714;28;1156;-64
2021/03/12 02:21:57;;;;;;;;;;;;;;;;;;5049539;28;839;-64
2021/03/12 02:24:32;;;;;;;;;;;;;;;;;;5049292;28;1894;-63
2021/03/12 02:27:02;;;;;;;;;;;;;;;;;;5049980;28;894;-64
2021/03/12 02:29:28;;;;;;;;;;;;;;;;;;5049924;28;851;-63
2021/03/12 02:31:55;;;;;;;;;;;;;;;;;;5049746;28;1082;-64
2021/03/12 02:34:23;;;;;;;;;;;;;;;;;;5045203;28;2434;-64
2021/03/12 02:36:50;;;;;;;;;;;;;;;;;;5038453;28;835;-63
2021/03/12 02:39:18;;;;;;;;;;;;;;;;;;5039020;28;1448;-64
2021/03/12 02:41:44;;;;;;;;;;;;;;;;;;5029726;28;859;-63
2021/03/12 02:44:11;;;;;;;;;;;;;;;;;;5028067;28;1983;-63
2021/03/12 02:46:37;;;;;;;;;;;;;;;;;;5029205;28;902;-63
2021/03/12 02:49:02;;;;;;;;;;;;;;;;;;5029190;28;812;-63
2021/03/12 02:51:28;;;;;;;;;;;;;;;;;;5029458;28;890;-63
2021/03/12 02:53:54;;;;;;;;;;;;;;;;;;5050875;28;1028;-63
2021/03/12 02:56:20;;;;;;;;;;;;;;;;;;5067731;28;1174;-63
2021/03/12 02:58:46;;;;;;;;;;;;;;;;;;5069013;28;890;-64
2021/03/12 03:01:12;;;;;;;;;;;;;;;;;;5069775;28;914;-63
2021/03/12 03:03:39;;;;;;;;;;;;;;;;;;5069454;28;859;-63
2021/03/12 03:06:05;;;;;;;;;;;;;;;;;;5069132;28;1957;-63
2021/03/12 03:08:32;;;;;;;;;;;;;;;;;;5051558;28;2602;-63
2021/03/12 03:10:59;;;;;;;;;;;;;;;;;;5043347;28;850;-63
2021/03/12 03:13:32;;;;;;;;;;;;;;;;;;5049349;28;901;-63
2021/03/12 03:15:57;;;;;;;;;;;;;;;;;;5049174;28;949;-63
2021/03/12 03:18:23;;;;;;;;;;;;;;;;;;5046529;28;1450;-63
2021/03/12 03:20:49;;;;;;;;;;;;;;;;;;5036577;28;1069;-63
2021/03/12 03:23:14;;;;;;;;;;;;;;;;;;5050123;28;847;-63
2021/03/12 03:25:40;;;;;;;;;;;;;;;;;;5048742;28;1898;-64
2021/03/12 03:28:05;;;;;;;;;;;;;;;;;;5046907;28;1159;-64
2021/03/12 03:30:31;;;;;;;;;;;;;;;;;;5048262;28;914;-63
2021/03/12 03:32:56;;;;;;;;;;;;;;;;;;5050745;28;1169;-64
2021/03/12 03:35:21;;;;;;;;;;;;;;;;;;5048688;28;910;-63
2021/03/12 03:37:47;;;;;;;;;;;;;;;;;;5048843;28;886;-64
2021/03/12 03:40:12;;;;;;;;;;;;;;;;;;5049461;28;905;-64
2021/03/12 03:42:39;;;;;;;;;;;;;;;;;;5048472;28;949;-64
2021/03/12 03:45:07;;;;;;;;;;;;;;;;;;5048995;28;1889;-63
2021/03/12 03:47:32;;;;;;;;;;;;;;;;;;5048447;28;914;-63
2021/03/12 03:49:58;;;;;;;;;;;;;;;;;;5047845;28;907;-62
2021/03/12 03:52:24;;;;;;;;;;;;;;;;;;5048261;28;866;-63
2021/03/12 03:54:52;;;;;;;;;;;;;;;;;;5066314;28;1086;-63
2021/03/12 03:57:20;;;;;;;;;;;;;;;;;;5067018;28;1366;-63
2021/03/12 03:59:46;;;;;;;;;;;;;;;;;;5063730;28;1009;-62
2021/03/12 04:02:14;;;;;;;;;;;;;;;;;;5048914;28;914;-63
2021/03/12 04:04:42;;;;;;;;;;;;;;;;;;5047808;28;1882;-63
2021/03/12 04:07:09;;;;;;;;;;;;;;;;;;5047970;28;854;-63
2021/03/12 04:09:35;;;;;;;;;;;;;;;;;;5047895;28;981;-63
2021/03/12 04:12:01;;;;;;;;;;;;;;;;;;5047392;28;843;-63
2021/03/12 04:14:26;;;;;;;;;;;;;;;;;;5047858;28;917;-64
2021/03/12 04:16:52;;;;;;;;;;;;;;;;;;5048050;28;898;-63
2021/03/12 04:19:18;;;;;;;;;;;;;;;;;;5048094;28;835;-63
2021/03/12 04:21:44;;;;;;;;;;;;;;;;;;5047150;28;1671;-63
2021/03/12 04:24:10;;;;;;;;;;;;;;;;;;5046193;28;1927;-63
2021/03/12 04:26:35;;;;;;;;;;;;;;;;;;5047196;28;993;-63
2021/03/12 04:29:01;;;;;;;;;;;;;;;;;;5047069;28;902;-63
2021/03/12 04:31:27;;;;;;;;;;;;;;;;;;5047211;28;1080;-63
2021/03/12 04:33:53;;;;;;;;;;;;;;;;;;5047601;28;875;-63
2021/03/12 04:36:18;;;;;;;;;;;;;;;;;;5047842;28;814;-63
2021/03/12 04:38:44;;;;;;;;;;;;;;;;;;5047612;28;853;-63
2021/03/12 04:41:10;;;;;;;;;;;;;;;;;;5046229;28;925;-62
2021/03/12 04:43:35;;;;;;;;;;;;;;;;;;5047248;28;931;-62
2021/03/12 04:46:03;;;;;;;;;;;;;;;;;;5047218;28;1976;-62
2021/03/12 04:48:30;;;;;;;;;;;;;;;;;;5046440;28;878;-62
2021/03/12 04:50:55;;;;;;;;;;;;;;;;;;5047036;28;857;-62
2021/03/12 04:53:21;;;;;;;;;;;;;;;;;;5053394;28;1094;-62
2021/03/12 04:55:46;;;;;;;;;;;;;;;;;;5066862;28;924;-63
2021/03/12 04:58:12;;;;;;;;;;;;;;;;;;5066746;28;898;-64
2021/03/12 05:00:37;;;;;;;;;;;;;;;;;;5065543;28;1301;-64
2021/03/12 05:03:02;;;;;;;;;;;;;;;;;;5066561;28;830;-64
2021/03/12 05:05:28;;;;;;;;;;;;;;;;;;5066341;28;1993;-62
2021/03/12 05:07:54;;;;;;;;;;;;;;;;;;5066971;28;906;-64
2021/03/12 05:10:20;;;;;;;;;;;;;;;;;;5066440;28;819;-63
2021/03/12 05:12:45;;;;;;;;;;;;;;;;;;5066812;28;850;-63
2021/03/12 05:15:11;;;;;;;;;;;;;;;;;;5067728;28;807;-63
2021/03/12 05:17:36;;;;;;;;;;;;;;;;;;5066627;28;803;-64
2021/03/12 05:20:02;;;;;;;;;;;;;;;;;;5066253;28;957;-63
2021/03/12 05:22:29;;;;;;;;;;;;;;;;;;5065420;28;823;-63
2021/03/12 05:24:54;;;;;;;;;;;;;;;;;;5066272;28;1953;-62
2021/03/12 05:27:19;;;;;;;;;;;;;;;;;;5054916;28;1660;-63
2021/03/12 05:29:45;;;;;;;;;;;;;;;;;;5047130;28;850;-63
2021/03/12 05:32:10;;;;;;;;;;;;;;;;;;5047087;28;823;-62
2021/03/12 05:34:36;;;;;;;;;;;;;;;;;;5045902;28;899;-63
2021/03/12 05:37:01;;;;;;;;;;;;;;;;;;5047107;28;820;-63
2021/03/12 05:39:26;;;;;;;;;;;;;;;;;;5045933;28;846;-64
2021/03/12 05:41:53;;;;;;;;;;;;;;;;;;5046595;28;1057;-64
2021/03/12 05:44:18;;;;;;;;;;;;;;;;;;5045903;28;1987;-64
2021/03/12 05:46:44;;;;;;;;;;;;;;;;;;5047022;28;827;-64
2021/03/12 05:49:12;;;;;;;;;;;;;;;;;;5041678;28;1274;-64
2021/03/12 05:51:38;;;;;;;;;;;;;;;;;;5025938;28;1067;-64
2021/03/12 05:54:03;;;;;;;;;;;;;;;;;;5038035;28;1083;-64
2021/03/12 05:56:29;;;;;;;;;;;;;;;;;;5045773;28;871;-64
2021/03/12 05:58:56;;;;;;;;;;;;;;;;;;5045820;28;874;-64
2021/03/12 06:01:21;;;;;;;;;;;;;;;;;;5045632;28;1178;-64
2021/03/12 06:03:47;;;;;;;;;;;;;;;;;;5045396;28;843;-63
2021/03/12 06:06:12;;;;;;;;;;;;;;;;;;5046164;28;1932;-64
2021/03/12 06:08:38;;;;;;;;;;;;;;;;;;5044038;28;875;-64
2021/03/12 06:11:04;;;;;;;;;;;;;;;;;;5045582;28;903;-63
2021/03/12 06:13:29;;;;;;;;;;;;;;;;;;5045038;28;903;-64
2021/03/12 06:15:55;;;;;;;;;;;;;;;;;;5045837;28;826;-64
2021/03/12 06:18:22;;;;;;;;;;;;;;;;;;5045674;28;817;-64
2021/03/12 06:20:48;;;;;;;;;;;;;;;;;;5045150;28;1163;-64
2021/03/12 06:23:34;;;;;;;;;;;;;;;;;;5046156;28;1198;-63
2021/03/12 06:25:59;;;;;;;;;;;;;;;;;;5042322;28;1969;-64
2021/03/12 06:28:24;;;;;;;;;;;;;;;;;;5044991;28;1211;-64
2021/03/12 06:30:50;;;;;;;;;;;;;;;;;;5045603;28;882;-63
2021/03/12 06:33:28;;;;;;;;;;;;;;;;;;5045662;28;909;-63
2021/03/12 06:35:55;;;;;;;;;;;;;;;;;;5045719;28;780;-63
2021/03/12 06:38:20;;;;;;;;;;;;;;;;;;5045538;28;942;-64
2021/03/12 06:40:46;;;;;;;;;;;;;;;;;;5045616;28;989;-64
2021/03/12 06:43:12;;;;;;;;;;;;;;;;;;5045424;28;1230;-63
2021/03/12 06:45:41;;;;;;;;;;;;;;;;;;5045262;28;1898;-63
2021/03/12 06:48:13;;;;;;;;;;;;;;;;;;5044638;28;1254;-63
2021/03/12 06:50:46;;;;;;;;;;;;;;;;;;5044770;28;908;-64
2021/03/12 06:53:25;;;;;;;;;;;;;;;;;;5050744;28;1062;-63
2021/03/12 06:55:50;;;;;;;;;;;;;;;;;;5064894;28;947;-64
2021/03/12 06:58:16;;;;;;;;;;;;;;;;;;5065262;28;823;-64
2021/03/12 07:00:42;;;;;;;;;;;;;;;;;;5066319;28;938;-63
2021/03/12 07:03:17;;;;;;;;;;;;;;;;;;5065069;28;839;-63
2021/03/12 07:05:59;;;;;;;;;;;;;;;;;;5061603;28;1979;-64
2021/03/12 07:08:32;;;;;;;;;;;;;;;;;;5055203;28;1079;-64
2021/03/12 07:10:58;;;;;;;;;;;;;;;;;;5067119;28;1197;-63
2021/03/12 07:13:25;;;;;;;;;;;;;;;;;;5055635;28;1091;-62
2021/03/12 07:15:51;;;;;;;;;;;;;;;;;;5048816;28;953;-64
2021/03/12 07:18:16;;;;;;;;;;;;;;;;;;5049634;28;1039;-64
2021/03/12 07:20:42;;;;;;;;;;;;;;;;;;5049109;28;866;-64
2021/03/12 07:23:08;;;;;;;;;;;;;;;;;;5058059;28;1102;-63
2021/03/12 07:25:34;;;;;;;;;;;;;;;;;;5057516;28;1898;-63
2021/03/12 07:28:01;;;;;;;;;;;;;;;;;;5068071;28;811;-64
2021/03/12 07:30:27;;;;;;;;;;;;;;;;;;5045832;28;1635;-64
2021/03/12 07:32:53;;;;;;;;;;;;;;;;;;5032895;28;1492;-64
2021/03/12 07:35:19;;;;;;;;;;;;;;;;;;5047625;28;1722;-63
2021/03/12 07:37:47;;;;;;;;;;;;;;;;;;5060599;28;1436;-64
2021/03/12 07:40:14;;;;;;;;;;;;;;;;;;5048989;28;1225;-63
2021/03/12 07:42:41;;;;;;;;;;;;;;;;;;5067232;28;1125;-64
2021/03/12 07:45:07;;;;;;;;;;;;;;;;;;5065401;28;1973;-63
2021/03/12 07:47:32;;;;;;;;;;;;;;;;;;5055919;28;1757;-65
2021/03/12 07:49:58;;;;;;;;;;;;;;;;;;5046151;28;1140;-64
2021/03/12 07:52:41;;;;;;;;;;;;;;;;;;5043725;28;1072;-65
2021/03/12 07:55:07;;;;;;;;;;;;;;;;;;5045455;28;1144;-65
2021/03/12 07:57:33;;;;;;;;;;;;;;;;;;5047977;28;1323;-66
2021/03/12 07:59:59;;;;;;;;;;;;;;;;;;5044925;28;1446;-64
2021/03/12 08:02:45;;;;;;;;;;;;;;;;;;5048562;28;819;-65
2021/03/12 08:05:29;;;;;;;;;;;;;;;;;;5046350;28;1964;-64
2021/03/12 08:07:54;;;;;;;;;;;;;;;;;;5046582;28;1128;-64
2021/03/12 08:10:19;;;;;;;;;;;;;;;;;;5047770;28;982;-64
2021/03/12 08:12:48;;;;;;;;;;;;;;;;;;5048989;28;730;-64
2021/03/12 08:15:16;;;;;;;;;;;;;;;;;;5047785;28;938;-64
2021/03/12 08:17:42;;;;;;;;;;;;;;;;;;5045600;28;1426;-65
2021/03/12 08:20:26;;;;;;;;;;;;;;;;;;5046783;28;915;-64
2021/03/12 08:22:54;;;;;;;;;;;;;;;;;;5046789;28;1241;-65
2021/03/12 08:25:32;;;;;;;;;;;;;;;;;;5046886;28;1877;-65
2021/03/12 08:28:07;;;;;;;;;;;;;;;;;;5047215;28;827;-63
2021/03/12 08:30:35;;;;;;;;;;;;;;;;;;5039960;28;1612;-64
2021/03/12 08:33:01;;;;;;;;;;;;;;;;;;5027203;28;1631;-65
2021/03/12 08:35:41;;;;;;;;;;;;;;;;;;5039501;28;1156;-63
2021/03/12 08:38:28;;;;;;;;;;;;;;;;;;5044727;28;1468;-64
2021/03/12 08:40:57;;;;;;;;;;;;;;;;;;5046205;28;1156;-64
2021/03/12 08:43:25;;;;;;;;;;;;;;;;;;5044253;28;1255;-63
2021/03/12 08:45:54;;;;;;;;;;;;;;;;;;5047194;28;1890;-62
2021/03/12 08:48:22;;;;;;;;;;;;;;;;;;5044106;28;1617;-64
2021/03/12 08:50:55;;;;;;;;;;;;;;;;;;5044672;28;1028;-64
2021/03/12 08:53:22;;;;;;;;;;;;;;;;;;5039741;28;1162;-64
2021/03/12 08:55:48;;;;;;;;;;;;;;;;;;5067123;28;843;-64
2021/03/12 08:58:14;;;;;;;;;;;;;;;;;;5065833;28;1249;-66
2021/03/12 09:00:40;;;;;;;;;;;;;;;;;;5066665;28;796;-63
2021/03/12 09:03:21;;;;;;;;;;;;;;;;;;5057996;28;1762;-62
2021/03/12 09:05:54;;;;;;;;;;;;;;;;;;5044671;28;1902;-64
2021/03/12 09:08:23;;;;;;;;;;;;;;;;;;5045190;28;821;-65
2021/03/12 09:10:49;;;;;;;;;;;;;;;;;;5044428;28;1365;-65
2021/03/12 09:13:15;;;;;;;;;;;;;;;;;;5047364;28;894;-63
2021/03/12 09:15:41;;;;;;;;;;;;;;;;;;5046972;28;1009;-64
2021/03/12 09:18:06;;;;;;;;;;;;;;;;;;5031190;28;1493;-62
2021/03/12 09:20:32;;;;;;;;;;;;;;;;;;5025468;28;922;-66
2021/03/12 09:22:57;;;;;;;;;;;;;;;;;;5026972;28;962;-62
2021/03/12 09:25:32;;;;;;;;;;;;;;;;;;5026553;28;1968;-64
2021/03/12 09:27:58;;;;;;;;;;;;;;;;;;5025980;28;800;-65
2021/03/12 09:30:35;;;;;;;;;;;;;;;;;;5027031;28;791;-62
2021/03/12 09:33:01;;;;;;;;;;;;;;;;;;5026424;28;768;-62
2021/03/12 09:35:27;;;;;;;;;;;;;;;;;;5026240;28;906;-61
2021/03/12 09:37:54;;;;;;;;;;;;;;;;;;5039118;28;1659;-63
2021/03/12 09:40:33;;;;;;;;;;;;;;;;;;5046119;28;906;-64
2021/03/12 09:42:58;;;;;;;;;;;;;;;;;;5046402;28;950;-63
2021/03/12 09:45:25;;;;;;;;;;;;;;;;;;5046421;28;1971;-63
2021/03/12 09:47:52;;;;;;;;;;;;;;;;;;5039668;28;1796;-62
2021/03/12 09:50:18;;;;;;;;;;;;;;;;;;5035394;28;1040;-63
2021/03/12 09:52:44;;;;;;;;;;;;;;;;;;5045143;28;1392;-67
2021/03/12 09:55:10;;;;;;;;;;;;;;;;;;5045480;28;1254;-66
2021/03/12 09:57:36;;;;;;;;;;;;;;;;;;5044986;28;1152;-62
2021/03/12 10:00:02;;;;;;;;;;;;;;;;;;5044924;28;1222;-65
2021/03/12 10:02:28;;;;;;;;;;;;;;;;;;5045697;28;1174;-66
2021/03/12 10:05:00;;;;;;;;;;;;;;;;;;5045415;28;1914;-65
2021/03/12 10:07:35;;;;;;;;;;;;;;;;;;5045498;28;1167;-67
2021/03/12 10:10:10;;;;;;;;;;;;;;;;;;5045357;28;1270;-64
2021/03/12 10:12:38;;;;;;;;;;;;;;;;;;5038902;28;1335;-64
2021/03/12 10:15:08;;;;;;;;;;;;;;;;;;5045549;28;1220;-61
2021/03/12 10:17:37;;;;;;;;;;;;;;;;;;5041753;28;1841;-64
2021/03/12 10:20:24;;;;;;;;;;;;;;;;;;5033273;28;1564;-65
2021/03/12 10:22:54;;;;;;;;;;;;;;;;;;5037039;28;1780;-65
2021/03/12 10:25:25;;;;;;;;;;;;;;;;;;5045183;28;2004;-63
2021/03/12 10:28:00;;;;;;;;;;;;;;;;;;5044794;28;1371;-64
2021/03/12 10:30:33;;;;;;;;;;;;;;;;;;5043184;28;1103;-67
2021/03/12 10:32:59;;;;;;;;;;;;;;;;;;5045629;28;1079;-64
2021/03/12 10:35:25;;;;;;;;;;;;;;;;;;5045537;28;1160;-65
2021/03/12 10:37:51;;;;;;;;;;;;;;;;;;5045544;28;1653;-65
2021/03/12 10:40:17;;;;;;;;;;;;;;;;;;5048790;28;1151;-68
2021/03/12 10:42:43;;;;;;;;;;;;;;;;;;5050272;28;1056;-67
2021/03/12 10:45:10;;;;;;;;;;;;;;;;;;5049212;28;1894;-69
2021/03/12 10:47:35;;;;;;;;;;;;;;;;;;5048901;28;1187;-67
2021/03/12 10:50:21;;;;;;;;;;;;;;;;;;5044546;28;1394;-66
2021/03/12 10:52:47;;;;;;;;;;;;;;;;;;5041404;28;944;-67
2021/03/12 10:55:12;;;;;;;;;;;;;;;;;;5069792;28;819;-63
2021/03/12 10:57:39;;;;;;;;;;;;;;;;;;5055736;28;811;-66
2021/03/12 11:00:06;;;;;;;;;;;;;;;;;;5045572;28;1195;-65
2021/03/12 11:02:35;;;;;;;;;;;;;;;;;;5048507;28;1226;-65
2021/03/12 11:05:00;;;;;;;;;;;;;;;;;;5049259;28;1913;-65
2021/03/12 11:07:26;;;;;;;;;;;;;;;;;;5048958;28;906;-65
2021/03/12 11:09:51;;;;;;;;;;;;;;;;;;5048737;28;1092;-65
2021/03/12 11:12:17;;;;;;;;;;;;;;;;;;5049030;28;847;-67
2021/03/12 11:14:42;;;;;;;;;;;;;;;;;;5047436;28;1569;-63
2021/03/12 11:17:07;;;;;;;;;;;;;;;;;;5048530;28;988;-62
2021/03/12 11:19:33;;;;;;;;;;;;;;;;;;5046883;28;1198;-64
2021/03/12 11:21:58;;;;;;;;;;;;;;;;;;5047607;28;1184;-61
2021/03/12 11:24:24;;;;;;;;;;;;;;;;;;5048178;28;1991;-62
2021/03/12 11:26:49;;;;;;;;;;;;;;;;;;5048418;28;1222;-62
2021/03/12 11:29:14;;;;;;;;;;;;;;;;;;5048923;28;1144;-61
2021/03/12 11:31:41;;;;;;;;;;;;;;;;;;5044656;28;1175;-61
2021/03/12 11:34:07;;;;;;;;;;;;;;;;;;5047320;28;1107;-61
2021/03/12 11:36:33;;;;;;;;;;;;;;;;;;5044902;28;1381;-61
2021/03/12 11:38:58;;;;;;;;;;;;;;;;;;5028914;28;816;-61
2021/03/12 11:41:24;;;;;;;;;;;;;;;;;;5028840;28;923;-61
2021/03/12 11:43:49;;;;;;;;;;;;;;;;;;5046731;28;1356;-62
2021/03/12 11:46:14;;;;;;;;;;;;;;;;;;5049161;28;1886;-61
2021/03/12 11:48:40;;;;;;;;;;;;;;;;;;5048386;28;1263;-61
2021/03/12 11:51:05;;;;;;;;;;;;;;;;;;5047267;28;1203;-62
2021/03/12 11:53:31;;;;;;;;;;;;;;;;;;5054464;28;1155;-62
2021/03/12 11:55:56;;;;;;;;;;;;;;;;;;5049418;28;1338;-61
2021/03/12 11:58:22;;;;;;;;;;;;;;;;;;5030464;28;1493;-61
2021/03/12 12:00:49;;;;;;;;;;;;;;;;;;5030592;28;1254;-62
2021/03/12 12:03:14;;;;;;;;;;;;;;;;;;5029093;28;930;-62
2021/03/12 12:05:40;;;;;;;;;;;;;;;;;;5027552;28;1967;-63
2021/03/12 12:08:05;;;;;;;;;;;;;;;;;;5028299;28;1054;-63
2021/03/12 12:10:31;;;;;;;;;;;;;;;;;;5032550;28;1180;-62
2021/03/12 12:12:56;;;;;;;;;;;;;;;;;;5047636;28;1214;-61
2021/03/12 12:15:22;;;;;;;;;;;;;;;;;;5047606;28;1155;-63
2021/03/12 12:17:48;;;;;;;;;;;;;;;;;;5046992;28;1223;-65
2021/03/12 12:20:14;;;;;;;;;;;;;;;;;;5042297;28;1744;-64
2021/03/12 12:22:40;;;;;;;;;;;;;;;;;;5033952;28;1191;-63
2021/03/12 12:25:06;;;;;;;;;;;;;;;;;;5028152;28;1961;-62
2021/03/12 12:27:32;;;;;;;;;;;;;;;;;;5027310;28;878;-64
2021/03/12 12:29:57;;;;;;;;;;;;;;;;;;5027512;28;954;-66
2021/03/12 12:32:22;;;;;;;;;;;;;;;;;;5027610;28;842;-63
2021/03/12 12:34:48;;;;;;;;;;;;;;;;;;5027285;28;941;-63
2021/03/12 12:37:13;;;;;;;;;;;;;;;;;;5028645;28;1697;-65
2021/03/12 12:39:39;;;;;;;;;;;;;;;;;;5026317;28;1174;-63
2021/03/12 12:42:04;;;;;;;;;;;;;;;;;;5034728;28;1164;-67
2021/03/12 12:44:29;;;;;;;;;;;;;;;;;;5047010;28;1970;-65
2021/03/12 12:46:55;;;;;;;;;;;;;;;;;;5042806;28;1489;-63
2021/03/12 12:49:21;;;;;;;;;;;;;;;;;;5027076;28;939;-61
2021/03/12 12:51:46;;;;;;;;;;;;;;;;;;5027163;28;1025;-64
2021/03/12 12:54:13;;;;;;;;;;;;;;;;;;5054461;28;1072;-62
2021/03/12 12:56:38;;;;;;;;;;;;;;;;;;5049506;28;1140;-64
2021/03/12 12:59:04;;;;;;;;;;;;;;;;;;5027171;28;851;-62
2021/03/12 13:01:29;;;;;;;;;;;;;;;;;;5042634;28;1375;-62
2021/03/12 13:03:54;;;;;;;;;;;;;;;;;;5046549;28;834;-62
2021/03/12 13:06:20;;;;;;;;;;;;;;;;;;5046847;28;1971;-63
2021/03/12 13:08:45;;;;;;;;;;;;;;;;;;5040198;28;1139;-63
2021/03/12 13:11:11;;;;;;;;;;;;;;;;;;5025440;28;867;-62
2021/03/12 13:13:36;;;;;;;;;;;;;;;;;;5027336;28;819;-62
2021/03/12 13:16:02;;;;;;;;;;;;;;;;;;5027382;28;839;-63
2021/03/12 13:18:29;;;;;;;;;;;;;;;;;;5045431;28;855;-63
2021/03/12 13:20:59;;;;;;;;;;;;;;;;;;5046941;28;906;-63
2021/03/12 13:23:26;;;;;;;;;;;;;;;;;;5046396;28;808;-66
2021/03/12 13:25:51;;;;;;;;;;;;;;;;;;5046482;28;1959;-64
2021/03/12 13:28:17;;;;;;;;;;;;;;;;;;5046473;28;842;-64
2021/03/12 13:30:43;;;;;;;;;;;;;;;;;;5045728;28;848;-65
2021/03/12 13:33:08;;;;;;;;;;;;;;;;;;5046450;28;1040;-67
2021/03/12 13:35:34;;;;;;;;;;;;;;;;;;5045745;28;1159;-64
2021/03/12 13:38:00;;;;;;;;;;;;;;;;;;5041831;28;1881;-64
2021/03/12 13:40:25;;;;;;;;;;;;;;;;;;5045303;28;1623;-65
2021/03/12 13:42:52;;;;;;;;;;;;;;;;;;5025814;28;899;-63
2021/03/12 13:45:17;;;;;;;;;;;;;;;;;;5030654;28;1967;-63
2021/03/12 13:47:42;;;;;;;;;;;;;;;;;;5046334;28;1172;-62
2021/03/12 13:50:09;;;;;;;;;;;;;;;;;;5045991;28;1057;-63
2021/03/12 13:52:35;;;;;;;;;;;;;;;;;;5048484;28;1132;-65
2021/03/12 13:55:00;;;;;;;;;;;;;;;;;;5041196;28;1545;-62
2021/03/12 13:57:26;;;;;;;;;;;;;;;;;;5045380;28;1274;-61
2021/03/12 13:59:52;;;;;;;;;;;;;;;;;;5044217;28;1248;-63
2021/03/12 14:02:17;;;;;;;;;;;;;;;;;;5044908;28;1308;-64
2021/03/12 14:04:42;;;;;;;;;;;;;;;;;;5044955;28;1967;-63
2021/03/12 14:07:08;;;;;;;;;;;;;;;;;;5043837;28;1242;-64
2021/03/12 14:09:33;;;;;;;;;;;;;;;;;;5043090;28;1332;-65
2021/03/12 14:11:59;;;;;;;;;;;;;;;;;;5043070;28;1377;-62
2021/03/12 14:14:25;;;;;;;;;;;;;;;;;;5047537;28;1237;-65
2021/03/12 14:16:50;;;;;;;;;;;;;;;;;;5049286;28;1269;-63
2021/03/12 14:19:16;;;;;;;;;;;;;;;;;;5050058;28;1259;-67
2021/03/12 14:21:41;;;;;;;;;;;;;;;;;;5049958;28;1159;-64
2021/03/12 14:24:14;;;;;;;;;;;;;;;;;;5049580;28;1077;-62
2021/03/12 14:26:45;;;;;;;;;;;;;;;;;;5046351;28;1893;-62
2021/03/12 14:29:11;;;;;;;;;;;;;;;;;;5049092;28;1054;-61
2021/03/12 14:31:37;;;;;;;;;;;;;;;;;;5048586;28;1151;-61
2021/03/12 14:34:02;;;;;;;;;;;;;;;;;;5044617;28;1406;-62
2021/03/12 14:36:28;;;;;;;;;;;;;;;;;;5030367;28;1124;-62
2021/03/12 14:38:54;;;;;;;;;;;;;;;;;;5029602;28;2434;-63
2021/03/12 14:41:20;;;;;;;;;;;;;;;;;;5037905;28;953;-61
2021/03/12 14:43:45;;;;;;;;;;;;;;;;;;5033763;28;1223;-61
2021/03/12 14:46:10;;;;;;;;;;;;;;;;;;5031578;28;1893;-61
2021/03/12 14:48:36;;;;;;;;;;;;;;;;;;5029782;28;835;-62
2021/03/12 14:51:01;;;;;;;;;;;;;;;;;;5029772;28;902;-61
2021/03/12 14:53:27;;;;;;;;;;;;;;;;;;5043370;28;1150;-60
2021/03/12 14:55:52;;;;;;;;;;;;;;;;;;5068819;28;842;-61
2021/03/12 14:58:17;;;;;;;;;;;;;;;;;;5069175;28;893;-61
2021/03/12 15:00:43;;;;;;;;;;;;;;;;;;5069137;28;888;-62
2021/03/12 15:03:08;;;;;;;;;;;;;;;;;;5068280;28;807;-62
2021/03/12 15:05:33;;;;;;;;;;;;;;;;;;5069051;28;1995;-64
2021/03/12 15:07:59;;;;;;;;;;;;;;;;;;5060003;28;799;-66
2021/03/12 15:10:24;;;;;;;;;;;;;;;;;;5029096;28;816;-62
2021/03/12 15:12:50;;;;;;;;;;;;;;;;;;5029549;28;859;-62
2021/03/12 15:15:15;;;;;;;;;;;;;;;;;;5029269;28;887;-67
2021/03/12 15:17:41;;;;;;;;;;;;;;;;;;5029642;28;764;-62
2021/03/12 15:20:07;;;;;;;;;;;;;;;;;;5028881;28;1310;-64
2021/03/12 15:22:33;;;;;;;;;;;;;;;;;;5029409;28;878;-64
2021/03/12 15:24:59;;;;;;;;;;;;;;;;;;5033779;28;1902;-62
2021/03/12 15:27:24;;;;;;;;;;;;;;;;;;5048451;28;937;-62
2021/03/12 15:29:50;;;;;;;;;;;;;;;;;;5049100;28;1213;-63
2021/03/12 15:32:15;;;;;;;;;;;;;;;;;;5049665;28;878;-62
2021/03/12 15:34:40;;;;;;;;;;;;;;;;;;5048644;28;846;-61
2021/03/12 15:37:06;;;;;;;;;;;;;;;;;;5048726;28;846;-62
2021/03/12 15:39:31;;;;;;;;;;;;;;;;;;5048824;28;1093;-62
2021/03/12 15:41:58;;;;;;;;;;;;;;;;;;5048306;28;906;-62
2021/03/12 15:44:24;;;;;;;;;;;;;;;;;;5046460;28;1666;-63
2021/03/12 15:46:50;;;;;;;;;;;;;;;;;;5029662;28;1906;-63
2021/03/12 15:49:15;;;;;;;;;;;;;;;;;;5048995;28;930;-62
2021/03/12 15:51:40;;;;;;;;;;;;;;;;;;5047937;28;1121;-62
2021/03/12 15:54:06;;;;;;;;;;;;;;;;;;5060708;28;1071;-62
2021/03/12 15:56:31;;;;;;;;;;;;;;;;;;5044802;28;1034;-62
2021/03/12 15:58:56;;;;;;;;;;;;;;;;;;5027869;28;942;-64
2021/03/12 16:01:22;;;;;;;;;;;;;;;;;;5031413;28;1764;-62
2021/03/12 16:03:48;;;;;;;;;;;;;;;;;;5031320;28;792;-67
2021/03/12 16:06:13;;;;;;;;;;;;;;;;;;5031576;28;1991;-61
2021/03/12 16:08:39;;;;;;;;;;;;;;;;;;5034973;28;1686;-61
2021/03/12 16:11:05;;;;;;;;;;;;;;;;;;5040798;28;1547;-63
2021/03/12 16:13:30;;;;;;;;;;;;;;;;;;5046966;28;1060;-62
2021/03/12 16:15:56;;;;;;;;;;;;;;;;;;5044697;28;1625;-63
2021/03/12 16:18:21;;;;;;;;;;;;;;;;;;5047162;28;1160;-62
2021/03/12 16:20:47;;;;;;;;;;;;;;;;;;5047984;28;1041;-68
2021/03/12 16:23:13;;;;;;;;;;;;;;;;;;5046530;28;1453;-62
2021/03/12 16:25:38;;;;;;;;;;;;;;;;;;5046615;28;1991;-62
2021/03/12 16:28:04;;;;;;;;;;;;;;;;;;5045854;28;1183;-62
2021/03/12 16:30:29;;;;;;;;;;;;;;;;;;5046690;28;1163;-63
2021/03/12 16:32:54;;;;;;;;;;;;;;;;;;5042982;28;1621;-66
2021/03/12 16:35:20;;;;;;;;;;;;;;;;;;5046847;28;1244;-63
2021/03/12 16:37:46;;;;;;;;;;;;;;;;;;5046213;28;1105;-63
2021/03/12 16:40:12;;;;;;;;;;;;;;;;;;5046581;28;1492;-64
2021/03/12 16:42:37;;;;;;;;;;;;;;;;;;5047627;28;938;-63
2021/03/12 16:45:04;;;;;;;;;;;;;;;;;;5047306;28;1902;-64
2021/03/12 16:47:29;;;;;;;;;;;;;;;;;;5047208;28;858;-62
2021/03/12 16:49:54;;;;;;;;;;;;;;;;;;5046782;28;1213;-62
2021/03/12 16:52:20;;;;;;;;;;;;;;;;;;5046316;28;1243;-63
2021/03/12 16:54:46;;;;;;;;;;;;;;;;;;5065653;28;1058;-62
2021/03/12 16:57:11;;;;;;;;;;;;;;;;;;5067232;28;858;-65
2021/03/12 16:59:37;;;;;;;;;;;;;;;;;;5066039;28;831;-66
2021/03/12 17:02:02;;;;;;;;;;;;;;;;;;5048402;28;1356;-65
2021/03/12 17:04:28;;;;;;;;;;;;;;;;;;5027286;28;839;-65
2021/03/12 17:06:53;;;;;;;;;;;;;;;;;;5026877;28;1969;-66